createdAt,value
2023-03-26T00:00:22.873Z,9.10
2023-03-26T00:03:18.406Z,9.04
2023-03-26T00:06:03.465Z,9.00
2023-03-26T00:08:38.376Z,9.00
2023-03-26T00:11:15.805Z,9.00
2023-03-26T00:13:50.706Z,8.94
2023-03-26T00:16:27.838Z,8.90
2023-03-26T00:19:02.883Z,8.90
2023-03-26T00:21:37.460Z,8.90
2023-03-26T00:24:16.410Z,8.90
2023-03-26T00:26:53.569Z,8.90
2023-03-26T00:29:28.050Z,8.90
2023-03-26T00:32:02.251Z,8.90
2023-03-26T00:34:36.385Z,8.94
2023-03-26T00:37:12.578Z,9.00
2023-03-26T00:39:49.282Z,9.00
2023-03-26T00:42:23.579Z,9.08
2023-03-26T00:44:57.940Z,9.10
2023-03-26T00:47:32.983Z,9.20
2023-03-26T00:50:15.490Z,9.20
2023-03-26T00:52:50.694Z,9.20
2023-03-26T00:55:24.808Z,9.22
2023-03-26T00:57:59.475Z,9.30
2023-03-26T01:00:40.031Z,9.30
2023-03-26T01:03:26.726Z,9.30
2023-03-26T01:06:08.227Z,9.40
2023-03-26T01:08:46.745Z,9.40
2023-03-26T01:11:24.812Z,9.40
2023-03-26T01:14:03.945Z,9.40
2023-03-26T01:16:45.194Z,9.46
2023-03-26T01:19:30.715Z,9.50
2023-03-26T01:22:05.238Z,9.50
2023-03-26T01:24:39.326Z,9.60
2023-03-26T01:27:29.410Z,9.60
2023-03-26T01:30:15.004Z,9.60
2023-03-26T01:33:03.424Z,9.60
2023-03-26T01:35:54.308Z,9.60
2023-03-26T01:38:39.364Z,9.60
2023-03-26T01:41:21.648Z,9.50
2023-03-26T01:44:06.089Z,9.40
2023-03-26T01:46:41.127Z,9.40
2023-03-26T01:49:15.776Z,9.40
2023-03-26T01:51:50.042Z,9.38
2023-03-26T01:54:29.787Z,9.30
2023-03-26T01:57:16.958Z,9.30
2023-03-26T02:00:12.958Z,9.30
2023-03-26T02:03:17.814Z,9.30
2023-03-26T02:05:59.717Z,9.30
2023-03-26T02:08:41.404Z,9.30
2023-03-26T02:11:17.705Z,9.30
2023-03-26T02:13:53.162Z,9.30
2023-03-26T02:16:27.730Z,9.30
2023-03-26T02:19:02.141Z,9.30
2023-03-26T02:21:36.265Z,9.30
2023-03-26T02:24:12.645Z,9.30
2023-03-26T02:26:47.014Z,9.30
2023-03-26T02:29:22.296Z,9.30
2023-03-26T02:31:56.771Z,9.20
2023-03-26T02:34:30.931Z,9.20
2023-03-26T02:37:05.091Z,9.10
2023-03-26T02:39:39.295Z,9.10
2023-03-26T02:42:22.695Z,9.00
2023-03-26T02:44:56.935Z,9.00
2023-03-26T02:47:57.769Z,9.00
2023-03-26T02:50:50.141Z,9.00
2023-03-26T02:53:33.405Z,9.10
2023-03-26T02:56:31.010Z,9.10
2023-03-26T02:59:15.473Z,9.10
2023-03-26T03:01:50.284Z,9.10
2023-03-26T03:04:24.867Z,9.12
2023-03-26T03:07:00.069Z,9.20
2023-03-26T03:09:34.858Z,9.20
2023-03-26T03:12:41.498Z,9.10
2023-03-26T03:15:17.324Z,9.10
2023-03-26T03:17:51.694Z,9.00
2023-03-26T03:20:25.898Z,9.00
2023-03-26T03:23:00.327Z,8.90
2023-03-26T03:25:34.912Z,8.80
2023-03-26T03:28:10.463Z,8.80
2023-03-26T03:30:45.931Z,8.72
2023-03-26T03:33:29.941Z,8.70
2023-03-26T03:36:07.178Z,8.70
2023-03-26T03:38:42.705Z,8.70
2023-03-26T03:41:18.598Z,8.62
2023-03-26T03:43:53.074Z,8.60
2023-03-26T03:46:32.814Z,8.60
2023-03-26T03:49:06.947Z,8.60
2023-03-26T03:51:43.339Z,8.60
2023-03-26T03:54:26.016Z,8.56
2023-03-26T03:57:34.796Z,8.50
2023-03-26T04:00:16.600Z,8.50
2023-03-26T04:02:50.778Z,8.50
2023-03-26T04:05:25.340Z,8.50
2023-03-26T04:08:00.915Z,8.46
2023-03-26T04:11:05.055Z,8.40
2023-03-26T04:13:57.788Z,8.40
2023-03-26T04:16:40.616Z,8.40
2023-03-26T04:19:14.752Z,8.50
2023-03-26T04:21:49.632Z,8.50
2023-03-26T04:24:26.386Z,8.58
2023-03-26T04:27:28.501Z,8.60
2023-03-26T04:30:15.097Z,8.70
2023-03-26T04:32:49.700Z,8.70
2023-03-26T04:35:24.693Z,8.80
2023-03-26T04:38:02.014Z,8.80
2023-03-26T04:40:42.665Z,8.90
2023-03-26T04:43:42.508Z,8.90
2023-03-26T04:46:18.625Z,8.88
2023-03-26T04:48:58.040Z,8.86
2023-03-26T04:51:41.849Z,8.90
2023-03-26T04:54:29.445Z,8.90
2023-03-26T04:57:15.620Z,8.90
2023-03-26T04:59:56.483Z,8.94
2023-03-26T05:02:32.601Z,9.00
2023-03-26T05:05:07.523Z,9.04
2023-03-26T05:07:44.242Z,9.10
2023-03-26T05:10:21.529Z,9.20
2023-03-26T05:13:11.744Z,9.20
2023-03-26T05:15:50.434Z,9.28
2023-03-26T05:18:44.827Z,9.30
2023-03-26T05:21:18.936Z,9.30
2023-03-26T05:23:53.208Z,9.40
2023-03-26T05:26:29.289Z,9.40
2023-03-26T05:29:05.180Z,9.40
2023-03-26T05:31:48.823Z,9.40
2023-03-26T05:34:26.507Z,9.40
2023-03-26T05:37:01.027Z,9.40
2023-03-26T05:39:59.799Z,9.40
2023-03-26T05:42:49.118Z,9.40
2023-03-26T05:45:43.748Z,9.40
2023-03-26T05:48:24.896Z,9.48
2023-03-26T05:51:01.688Z,9.50
2023-03-26T05:53:37.754Z,9.50
2023-03-26T05:56:30.365Z,9.60
2023-03-26T05:59:22.966Z,9.60
2023-03-26T06:02:16.414Z,9.70
2023-03-26T06:05:14.092Z,9.70
2023-03-26T06:08:11.732Z,9.80
2023-03-26T06:10:47.044Z,9.80
2023-03-26T06:13:22.948Z,9.80
2023-03-26T06:15:59.102Z,9.90
2023-03-26T06:18:42.835Z,9.90
2023-03-26T06:21:39.258Z,9.90
2023-03-26T06:24:20.377Z,9.98
2023-03-26T06:27:10.428Z,10.00
2023-03-26T06:29:56.813Z,10.00
2023-03-26T06:32:45.106Z,10.00
2023-03-26T06:35:30.007Z,10.10
2023-03-26T06:38:04.127Z,10.10
2023-03-26T06:40:39.169Z,10.10
2023-03-26T06:43:45.720Z,10.16
2023-03-26T06:46:43.933Z,10.20
2023-03-26T06:49:39.410Z,10.20
2023-03-26T06:52:32.611Z,10.30
2023-03-26T06:55:17.742Z,10.30
2023-03-26T06:58:12.258Z,10.40
2023-03-26T07:01:15.791Z,10.48
2023-03-26T07:04:09.349Z,10.50
2023-03-26T07:07:02.395Z,10.60
2023-03-26T07:09:55.510Z,10.70
2023-03-26T07:13:08.453Z,10.80
2023-03-26T07:16:02.564Z,10.90
2023-03-26T07:18:57.241Z,11.00
2023-03-26T07:21:38.131Z,11.00
2023-03-26T07:24:25.421Z,11.06
2023-03-26T07:27:36.209Z,11.20
2023-03-26T07:30:21.098Z,11.30
2023-03-26T07:33:30.381Z,11.44
2023-03-26T07:36:39.780Z,11.60
2023-03-26T07:39:48.153Z,11.60
2023-03-26T07:43:11.221Z,11.62
2023-03-26T07:46:05.737Z,11.68
2023-03-26T07:49:17.991Z,11.70
2023-03-26T07:52:22.096Z,11.60
2023-03-26T07:55:23.420Z,11.60
2023-03-26T07:58:42.449Z,11.60
2023-03-26T08:01:54.614Z,11.60
2023-03-26T08:04:56.792Z,11.70
2023-03-26T08:08:13.852Z,11.70
2023-03-26T08:11:14.192Z,11.90
2023-03-26T08:14:24.918Z,11.96
2023-03-26T08:17:07.219Z,11.90
2023-03-26T08:19:58.544Z,11.80
2023-03-26T08:22:41.131Z,11.88
2023-03-26T08:25:35.573Z,11.74
2023-03-26T08:28:39.566Z,11.60
2023-03-26T08:31:17.748Z,11.60
2023-03-26T08:33:51.890Z,11.60
2023-03-26T08:36:26.957Z,11.62
2023-03-26T08:39:01.357Z,11.80
2023-03-26T08:42:46.037Z,12.00
2023-03-26T08:46:04.837Z,12.40
2023-03-26T08:49:26.720Z,12.70
2023-03-26T08:52:50.501Z,12.80
2023-03-26T08:55:50.789Z,12.50
2023-03-26T08:59:15.075Z,12.38
2023-03-26T09:02:28.332Z,12.20
2023-03-26T09:05:54.911Z,11.82
2023-03-26T09:09:18.760Z,11.24
2023-03-26T09:12:36.683Z,10.80
2023-03-26T09:16:13.851Z,10.70
2023-03-26T09:19:21.608Z,10.70
2023-03-26T09:22:49.580Z,10.70
2023-03-26T09:26:02.917Z,10.50
2023-03-26T09:29:26.983Z,10.50
2023-03-26T09:32:31.653Z,10.48
2023-03-26T09:36:07.184Z,10.30
2023-03-26T09:38:56.598Z,10.10
2023-03-26T09:41:45.349Z,10.00
2023-03-26T09:44:54.516Z,9.90
2023-03-26T09:47:54.195Z,9.80
2023-03-26T09:51:06.217Z,9.90
2023-03-26T09:54:11.805Z,10.00
2023-03-26T09:57:00.581Z,10.36
2023-03-26T10:00:11.074Z,10.92
2023-03-26T10:03:18.861Z,11.72
2023-03-26T10:06:26.584Z,12.50
2023-03-26T10:09:19.611Z,12.68
2023-03-26T10:12:26.375Z,12.50
2023-03-26T10:15:17.926Z,12.62
2023-03-26T10:18:27.736Z,12.98
2023-03-26T10:21:12.417Z,13.20
2023-03-26T10:24:13.685Z,13.30
2023-03-26T10:27:10.958Z,13.34
2023-03-26T10:30:27.464Z,13.34
2023-03-26T10:33:22.094Z,13.40
2023-03-26T10:36:19.008Z,13.60
2023-03-26T10:39:36.718Z,13.60
2023-03-26T10:42:33.071Z,13.50
2023-03-26T10:45:37.733Z,13.80
2023-03-26T10:48:55.620Z,14.50
2023-03-26T10:51:48.729Z,14.30
2023-03-26T10:54:38.317Z,14.00
2023-03-26T10:57:27.781Z,13.70
2023-03-26T11:00:14.025Z,13.30
2023-03-26T11:03:10.666Z,13.00
2023-03-26T11:06:11.625Z,12.50
2023-03-26T11:08:58.611Z,11.80
2023-03-26T11:11:45.045Z,11.24
2023-03-26T11:14:34.732Z,10.98
2023-03-26T11:17:39.529Z,10.80
2023-03-26T11:20:22.226Z,10.72
2023-03-26T11:23:23.754Z,10.90
2023-03-26T11:26:12.841Z,11.24
2023-03-26T11:29:32.496Z,11.60
2023-03-26T11:32:14.015Z,12.46
2023-03-26T11:35:02.560Z,13.54
2023-03-26T11:37:43.462Z,13.84
2023-03-26T11:40:24.418Z,14.26
2023-03-26T11:43:05.002Z,14.30
2023-03-26T11:45:45.158Z,14.46
2023-03-26T11:48:30.299Z,15.16
2023-03-26T11:51:10.430Z,15.90
2023-03-26T11:53:46.849Z,15.86
2023-03-26T11:56:36.001Z,15.54
2023-03-26T11:59:21.667Z,15.04
2023-03-26T12:02:01.033Z,14.62
2023-03-26T12:04:41.847Z,14.26
2023-03-26T12:07:21.696Z,13.90
2023-03-26T12:10:17.953Z,13.60
2023-03-26T12:12:56.372Z,13.30
2023-03-26T12:15:32.176Z,13.30
2023-03-26T12:18:27.589Z,13.30
2023-03-26T12:21:13.166Z,13.40
2023-03-26T12:24:00.506Z,13.40
2023-03-26T12:26:41.752Z,13.30
2023-03-26T12:29:19.141Z,13.30
2023-03-26T12:32:08.472Z,13.30
2023-03-26T12:34:43.363Z,13.30
2023-03-26T12:37:43.296Z,13.36
2023-03-26T12:40:34.433Z,13.58
2023-03-26T12:44:56.291Z,13.80
2023-03-26T12:47:56.491Z,14.20
2023-03-26T12:49:27.102Z,14.46
2023-03-26T12:52:18.820Z,14.74
2023-03-26T12:55:02.597Z,15.24
2023-03-26T12:58:00.135Z,15.96
2023-03-26T13:01:03.155Z,16.50
2023-03-26T13:04:09.721Z,16.82
2023-03-26T13:07:02.236Z,17.00
2023-03-26T13:09:56.138Z,16.76
2023-03-26T13:12:47.570Z,16.60
2023-03-26T13:15:33.873Z,16.24
2023-03-26T13:18:24.569Z,16.14
2023-03-26T13:21:09.514Z,16.64
2023-03-26T13:23:57.051Z,17.40
2023-03-26T13:26:52.242Z,17.26
2023-03-26T13:29:38.285Z,16.76
2023-03-26T13:32:25.556Z,16.40
2023-03-26T13:35:19.137Z,16.00
2023-03-26T13:38:04.143Z,15.78
2023-03-26T13:40:50.614Z,15.80
2023-03-26T13:43:38.098Z,15.80
2023-03-26T13:46:26.220Z,15.90
2023-03-26T13:49:04.516Z,16.18
2023-03-26T13:51:49.982Z,16.30
2023-03-26T13:54:34.145Z,16.08
2023-03-26T13:57:16.212Z,15.80
2023-03-26T13:59:57.529Z,15.70
2023-03-26T14:02:38.912Z,15.74
2023-03-26T14:05:21.280Z,15.80
2023-03-26T14:08:04.214Z,15.78
2023-03-26T14:10:46.855Z,15.80
2023-03-26T14:13:28.393Z,15.80
2023-03-26T14:16:12.986Z,15.66
2023-03-26T14:18:58.451Z,15.50
2023-03-26T14:21:56.177Z,15.28
2023-03-26T14:24:55.549Z,15.08
2023-03-26T14:27:55.947Z,14.90
2023-03-26T14:30:57.841Z,14.60
2023-03-26T14:33:52.172Z,14.50
2023-03-26T14:36:54.359Z,14.40
2023-03-26T14:39:58.914Z,14.40
2023-03-26T14:42:47.737Z,14.48
2023-03-26T14:45:59.313Z,14.50
2023-03-26T14:49:12.404Z,14.50
2023-03-26T14:52:02.851Z,15.14
2023-03-26T14:54:43.790Z,15.60
2023-03-26T14:57:54.311Z,15.50
2023-03-26T15:01:04.967Z,15.40
2023-03-26T15:04:36.562Z,15.20
2023-03-26T15:07:48.695Z,14.90
2023-03-26T15:11:04.349Z,14.60
2023-03-26T15:14:00.444Z,14.40
2023-03-26T15:17:31.042Z,14.20
2023-03-26T15:20:47.025Z,14.10
2023-03-26T15:24:11.047Z,14.00
2023-03-26T15:27:39.997Z,13.90
2023-03-26T15:31:07.059Z,13.80
2023-03-26T15:34:34.157Z,13.70
2023-03-26T15:38:13.022Z,13.76
2023-03-26T15:41:17.011Z,13.80
2023-03-26T15:44:31.644Z,13.80
2023-03-26T15:47:39.027Z,13.80
2023-03-26T15:50:38.130Z,13.76
2023-03-26T15:53:36.004Z,13.68
2023-03-26T15:56:37.050Z,13.60
2023-03-26T15:59:33.021Z,13.40
2023-03-26T16:02:27.862Z,13.38
2023-03-26T16:05:27.083Z,13.20
2023-03-26T16:08:16.123Z,13.10
2023-03-26T16:10:59.128Z,13.00
2023-03-26T16:13:45.258Z,12.90
2023-03-26T16:25:27.578Z,12.00
2023-03-26T16:28:36.422Z,11.88
2023-03-26T16:31:38.307Z,11.60
2023-03-26T16:34:38.867Z,11.42
2023-03-26T16:37:50.216Z,11.30
2023-03-26T16:40:50.724Z,11.10
2023-03-26T16:43:53.120Z,11.00
2023-03-26T16:46:43.622Z,11.00
2023-03-26T16:50:08.458Z,10.94
2023-03-26T16:52:56.777Z,10.82
2023-03-26T16:55:46.790Z,10.70
2023-03-26T16:58:45.495Z,10.70
2023-03-26T17:01:35.916Z,10.60
2023-03-26T17:04:20.737Z,10.60
2023-03-26T17:07:18.908Z,10.52
2023-03-26T17:10:07.218Z,10.50
2023-03-26T17:12:51.906Z,10.44
2023-03-26T17:15:43.872Z,10.40
2023-03-26T17:18:43.578Z,10.30
2023-03-26T17:21:26.126Z,10.20
2023-03-26T17:24:17.858Z,10.20
2023-03-26T17:27:21.466Z,10.10
2023-03-26T17:30:57.586Z,10.00
2023-03-26T17:33:39.578Z,9.84
2023-03-26T17:36:42.193Z,9.72
2023-03-26T17:40:12.476Z,9.60
2023-03-26T17:43:09.493Z,9.50
2023-03-26T17:46:02.839Z,9.40
2023-03-26T17:48:47.133Z,9.40
2023-03-26T17:51:41.322Z,9.40
2023-03-26T17:54:27.263Z,9.40
2023-03-26T17:57:08.404Z,9.30
2023-03-26T17:59:44.414Z,9.30
2023-03-26T18:02:24.017Z,9.30
2023-03-26T18:05:00.532Z,9.30
2023-03-26T18:08:19.714Z,9.30
2023-03-26T18:11:36.645Z,9.20
2023-03-26T18:14:56.738Z,9.20
2023-03-26T18:17:40.431Z,9.20
2023-03-26T18:20:27.810Z,9.20
2023-03-26T18:23:09.653Z,9.10
2023-03-26T18:25:49.697Z,9.08
2023-03-26T18:28:36.072Z,9.00
2023-03-26T18:31:20.645Z,8.94
2023-03-26T18:34:06.933Z,8.90
2023-03-26T18:36:41.647Z,8.90
2023-03-26T18:39:20.441Z,9.00
2023-03-26T18:41:54.835Z,9.00
2023-03-26T18:44:29.397Z,9.00
2023-03-26T18:47:09.874Z,9.00
2023-03-26T18:49:48.366Z,9.10
2023-03-26T18:52:23.981Z,9.10
2023-03-26T18:55:00.510Z,9.10
2023-03-26T18:57:34.848Z,9.10
2023-03-26T19:00:25.538Z,9.10
2023-03-26T19:03:07.635Z,9.10
2023-03-26T19:05:42.599Z,9.10
2023-03-26T19:08:19.458Z,9.12
2023-03-26T19:10:55.878Z,9.10
2023-03-26T19:13:32.887Z,9.10
2023-03-26T19:16:18.441Z,9.10
2023-03-26T19:18:54.308Z,9.10
2023-03-26T19:21:28.940Z,9.10
2023-03-26T19:24:05.398Z,9.10
2023-03-26T19:26:39.969Z,9.04
2023-03-26T19:29:20.564Z,9.00
2023-03-26T19:32:05.094Z,9.00
2023-03-26T19:34:45.502Z,9.00
2023-03-26T19:37:27.540Z,8.90
2023-03-26T19:40:15.377Z,8.90
2023-03-26T19:42:51.491Z,8.90
2023-03-26T19:45:27.793Z,8.84
2023-03-26T19:48:15.539Z,8.80
2023-03-26T19:51:04.890Z,8.76
2023-03-26T19:53:44.451Z,8.70
2023-03-26T19:56:22.207Z,8.70
2023-03-26T19:58:57.460Z,8.70
2023-03-26T20:01:33.627Z,8.70
2023-03-26T20:04:12.372Z,8.70
2023-03-26T20:06:49.263Z,8.70
2023-03-26T20:09:25.577Z,8.60
2023-03-26T20:11:59.829Z,8.58
2023-03-26T20:14:34.232Z,8.54
2023-03-26T20:17:16.194Z,8.58
2023-03-26T20:19:51.475Z,8.60
2023-03-26T20:22:26.881Z,8.60
2023-03-26T20:25:03.266Z,8.60
2023-03-26T20:27:37.556Z,8.52
2023-03-26T20:30:19.062Z,8.50
2023-03-26T20:33:12.184Z,8.52
2023-03-26T20:35:48.578Z,8.60
2023-03-26T20:38:32.930Z,8.60
2023-03-26T20:41:17.702Z,8.52
2023-03-26T20:43:52.674Z,8.50
2023-03-26T20:46:32.043Z,8.50
2023-03-26T20:49:06.869Z,8.50
2023-03-26T20:51:43.829Z,8.50
2023-03-26T20:54:24.307Z,8.48
2023-03-26T20:56:59.411Z,8.40
2023-03-26T20:59:34.742Z,8.40
2023-03-26T21:02:09.988Z,8.30
2023-03-26T21:04:45.258Z,8.30
2023-03-26T21:07:19.802Z,8.30
2023-03-26T21:09:58.191Z,8.30
2023-03-26T21:12:41.354Z,8.30
2023-03-26T21:15:23.345Z,8.30
2023-03-26T21:17:59.791Z,8.30
2023-03-26T21:20:37.492Z,8.30
2023-03-26T21:23:21.772Z,8.20
2023-03-26T21:26:07.994Z,8.10
2023-03-26T21:28:48.234Z,8.10
2023-03-26T21:31:26.613Z,8.10
2023-03-26T21:34:03.002Z,8.00
2023-03-26T21:36:39.095Z,8.10
2023-03-26T21:39:15.915Z,8.10
2023-03-26T21:42:05.436Z,8.10
2023-03-26T21:44:42.237Z,8.10
2023-03-26T21:47:18.209Z,8.14
2023-03-26T21:49:54.811Z,8.20
2023-03-26T21:52:30.762Z,8.20
2023-03-26T21:55:07.991Z,8.28
2023-03-26T21:58:07.454Z,8.30
2023-03-26T22:00:57.248Z,8.34
2023-03-26T22:03:45.077Z,8.40
2023-03-26T22:06:26.724Z,8.40
2023-03-26T22:09:01.808Z,8.50
2023-03-26T22:11:36.098Z,8.50
2023-03-26T22:14:12.073Z,8.50
2023-03-26T22:16:46.374Z,8.52
2023-03-26T22:19:20.567Z,8.54
2023-03-26T22:21:55.104Z,8.50
2023-03-26T22:24:29.418Z,8.50
2023-03-26T22:27:03.837Z,8.52
2023-03-26T22:29:38.098Z,8.60
2023-03-26T22:32:12.733Z,8.60
2023-03-26T22:34:46.799Z,8.60
2023-03-26T22:37:20.888Z,8.70
2023-03-26T22:39:55.027Z,8.70
2023-03-26T22:42:29.294Z,8.66
2023-03-26T22:45:04.203Z,8.70
2023-03-26T22:47:38.826Z,8.70
2023-03-26T22:50:14.131Z,8.70
2023-03-26T22:52:48.677Z,8.70
2023-03-26T22:55:28.726Z,8.70
2023-03-26T22:58:03.797Z,8.64
2023-03-26T23:00:40.053Z,8.60
2023-03-26T23:03:14.418Z,8.60
2023-03-26T23:05:57.622Z,8.60
2023-03-26T23:08:32.352Z,8.70
2023-03-26T23:11:11.050Z,8.68
2023-03-26T23:13:47.612Z,8.60
2023-03-26T23:16:22.596Z,8.60
2023-03-26T23:18:56.802Z,8.60
2023-03-26T23:21:31.344Z,8.60
2023-03-26T23:24:07.473Z,8.60
2023-03-26T23:26:50.437Z,8.60
2023-03-26T23:29:25.396Z,8.60
2023-03-26T23:31:59.880Z,8.60
2023-03-26T23:34:34.121Z,8.60
2023-03-26T23:37:11.041Z,8.60
2023-03-26T23:39:46.931Z,8.60
2023-03-26T23:42:28.923Z,8.60
2023-03-26T23:45:03.692Z,8.50
2023-03-26T23:47:42.354Z,8.50
2023-03-26T23:50:18.179Z,8.50
2023-03-26T23:52:52.352Z,8.50
2023-03-26T23:55:28.272Z,8.50
2023-03-26T23:58:02.516Z,8.50
